Time;durP1;ratioP1;P1;durP2;ratioP2;P2;SDS_P1;SDS_P2;PMS_P1;PMS_P2;Temp;Humidity;BMP_temperature;BMP_pressure;BME280_temperature;BME280_humidity;BME280_pressure;Samples;Min_cycle;Max_cycle;Signal;HPM_P1;HPM_P2
2022/01/03 00:00:11;;;;;;;5.13;1.88;;;;;;;;;;5016558;28;20182;-61
2022/01/03 00:02:37;;;;;;;4.20;1.80;;;;;;;;;;5016503;28;20653;-61
2022/01/03 00:05:04;;;;;;;6.60;1.65;;;;;;;;;;5016548;28;20212;-61
2022/01/03 00:07:30;;;;;;;5.65;1.73;;;;;;;;;;5016841;28;20178;-61
2022/01/03 00:09:57;;;;;;;6.40;1.85;;;;;;;;;;4998972;28;20198;-61
2022/01/03 00:12:23;;;;;;;4.28;1.52;;;;;;;;;;5016702;28;20185;-61
2022/01/03 00:14:50;;;;;;;4.18;1.73;;;;;;;;;;5016472;28;20512;-61
2022/01/03 00:17:16;;;;;;;5.78;2.05;;;;;;;;;;5016447;28;20185;-61
2022/01/03 00:19:41;;;;;;;6.53;1.60;;;;;;;;;;5016262;28;20437;-61
2022/01/03 00:22:09;;;;;;;5.78;1.60;;;;;;;;;;5016110;28;20177;-61
2022/01/03 00:24:36;;;;;;;4.60;1.50;;;;;;;;;;5016592;28;20202;-61
2022/01/03 00:27:05;;;;;;;4.63;1.52;;;;;;;;;;5016405;28;20170;-59
2022/01/03 00:29:51;;;;;;;4.70;1.60;;;;;;;;;;5016161;28;20292;-61
2022/01/03 00:32:17;;;;;;;3.00;1.60;;;;;;;;;;5015816;28;20562;-61
2022/01/03 00:34:44;;;;;;;5.57;1.70;;;;;;;;;;5015917;28;20193;-61
2022/01/03 00:37:11;;;;;;;5.70;1.75;;;;;;;;;;5015935;28;20304;-60
2022/01/03 00:39:37;;;;;;;6.10;1.98;;;;;;;;;;5016153;28;20170;-61
2022/01/03 00:42:04;;;;;;;4.40;1.50;;;;;;;;;;5015796;28;20202;-61
2022/01/03 00:44:29;;;;;;;5.88;1.35;;;;;;;;;;5015789;28;20167;-61
2022/01/03 00:46:56;;;;;;;6.97;2.60;;;;;;;;;;5015753;28;20169;-61
2022/01/03 00:49:22;;;;;;;4.25;1.80;;;;;;;;;;5015507;28;20198;-61
2022/01/03 00:51:48;;;;;;;7.15;2.13;;;;;;;;;;5015586;28;20167;-61
2022/01/03 00:54:14;;;;;;;5.03;1.70;;;;;;;;;;5016039;28;20185;-61
2022/01/03 00:56:46;;;;;;;6.00;2.15;;;;;;;;;;5015476;28;20173;-61
2022/01/03 00:59:16;;;;;;;7.18;1.75;;;;;;;;;;5015894;28;20178;-61
2022/01/03 01:01:49;;;;;;;10.13;2.05;;;;;;;;;;5015281;28;20235;-61
2022/01/03 01:04:16;;;;;;;6.70;1.83;;;;;;;;;;4998306;28;20178;-60
2022/01/03 01:06:42;;;;;;;3.17;2.05;;;;;;;;;;5015548;28;20170;-61
2022/01/03 01:09:11;;;;;;;5.90;1.83;;;;;;;;;;5015541;28;20297;-61
2022/01/03 01:11:40;;;;;;;10.10;2.03;;;;;;;;;;5015462;28;20195;-61
2022/01/03 01:14:06;;;;;;;4.63;1.83;;;;;;;;;;5015544;28;20163;-60
2022/01/03 01:16:32;;;;;;;6.38;1.85;;;;;;;;;;5014970;28;20184;-61
2022/01/03 01:18:58;;;;;;;3.58;1.85;;;;;;;;;;4997934;28;20691;-60
2022/01/03 01:21:25;;;;;;;5.15;2.00;;;;;;;;;;5015125;28;20166;-60
2022/01/03 01:23:52;;;;;;;4.63;1.88;;;;;;;;;;5015422;28;20171;-60
2022/01/03 01:29:07;;;;;;;6.55;2.08;;;;;;;;;;5015266;28;20238;-59
2022/01/03 01:31:34;;;;;;;5.85;2.00;;;;;;;;;;5015254;28;20316;-60
2022/01/03 01:34:02;;;;;;;4.18;2.22;;;;;;;;;;5015132;28;20209;-59
2022/01/03 01:36:29;;;;;;;4.03;1.90;;;;;;;;;;5015004;28;20170;-60
2022/01/03 01:38:59;;;;;;;5.40;2.22;;;;;;;;;;5015610;28;20569;-61
2022/01/03 01:41:27;;;;;;;7.28;1.92;;;;;;;;;;5015264;28;20166;-61
2022/01/03 01:43:53;;;;;;;4.78;2.05;;;;;;;;;;5015113;28;20193;-61
2022/01/03 01:46:20;;;;;;;7.32;2.30;;;;;;;;;;5014899;28;20245;-60
2022/01/03 01:48:48;;;;;;;5.28;2.28;;;;;;;;;;5014768;28;20165;-60
2022/01/03 01:51:16;;;;;;;4.65;2.00;;;;;;;;;;5014654;28;20174;-59
2022/01/03 01:53:47;;;;;;;5.72;2.30;;;;;;;;;;5014983;28;20190;-60
2022/01/03 01:56:19;;;;;;;6.25;2.30;;;;;;;;;;5015049;28;20230;-61
2022/01/03 01:58:56;;;;;;;3.95;2.30;;;;;;;;;;5014587;28;20511;-60
2022/01/03 02:01:26;;;;;;;6.18;1.88;;;;;;;;;;5014469;28;20638;-60
2022/01/03 02:04:02;;;;;;;5.90;2.92;;;;;;;;;;5015331;28;20556;-59
2022/01/03 02:06:42;;;;;;;7.00;2.40;;;;;;;;;;5015032;28;20162;-58
2022/01/03 02:09:10;;;;;;;5.53;2.53;;;;;;;;;;5014298;28;20177;-61
2022/01/03 02:11:42;;;;;;;4.40;2.47;;;;;;;;;;5014416;28;20170;-59
2022/01/03 02:14:08;;;;;;;4.97;2.47;;;;;;;;;;5014167;28;20165;-60
2022/01/03 02:16:34;;;;;;;4.85;2.60;;;;;;;;;;5014029;28;20232;-59
2022/01/03 02:19:00;;;;;;;6.43;2.90;;;;;;;;;;5014115;28;20166;-60
2022/01/03 02:21:25;;;;;;;7.28;2.78;;;;;;;;;;5013793;28;20163;-61
2022/01/03 02:23:51;;;;;;;6.43;2.63;;;;;;;;;;5014058;28;20246;-59
2022/01/03 02:26:17;;;;;;;4.85;2.35;;;;;;;;;;5014332;28;20165;-60
2022/01/03 02:28:43;;;;;;;7.35;2.38;;;;;;;;;;5013900;28;20162;-60
2022/01/03 02:31:09;;;;;;;3.72;2.33;;;;;;;;;;5014259;28;20204;-59
2022/01/03 02:33:35;;;;;;;5.78;2.47;;;;;;;;;;5013908;28;20613;-60
2022/01/03 02:36:03;;;;;;;8.30;3.13;;;;;;;;;;5014245;28;20244;-59
2022/01/03 02:38:30;;;;;;;5.28;2.65;;;;;;;;;;5013729;28;20225;-60
2022/01/03 02:40:55;;;;;;;5.95;2.40;;;;;;;;;;5013758;28;20209;-60
2022/01/03 02:43:23;;;;;;;4.60;2.40;;;;;;;;;;5013764;28;20224;-60
2022/01/03 02:45:49;;;;;;;4.18;2.50;;;;;;;;;;5013888;28;20201;-59
2022/01/03 02:48:15;;;;;;;6.45;2.55;;;;;;;;;;5013668;28;20609;-59
2022/01/03 02:50:41;;;;;;;6.28;2.80;;;;;;;;;;5013635;28;20198;-61
2022/01/03 02:53:07;;;;;;;6.53;2.60;;;;;;;;;;5013479;28;20181;-60
2022/01/03 02:55:33;;;;;;;6.65;2.65;;;;;;;;;;5013544;28;20180;-60
2022/01/03 02:58:06;;;;;;;5.63;2.42;;;;;;;;;;5013839;28;20163;-60
2022/01/03 03:00:32;;;;;;;6.40;2.90;;;;;;;;;;5013925;28;20169;-60
2022/01/03 03:02:58;;;;;;;5.78;2.70;;;;;;;;;;5013449;28;20689;-60
2022/01/03 03:05:24;;;;;;;6.05;2.63;;;;;;;;;;5013907;28;20450;-60
2022/01/03 03:07:50;;;;;;;7.95;2.53;;;;;;;;;;5013439;28;20266;-60
2022/01/03 03:10:19;;;;;;;5.80;2.88;;;;;;;;;;5013646;28;20228;-60
2022/01/03 03:12:46;;;;;;;2.90;2.50;;;;;;;;;;5013474;28;20646;-60
2022/01/03 03:15:13;;;;;;;5.95;2.75;;;;;;;;;;5013293;28;20525;-60
2022/01/03 03:17:40;;;;;;;5.05;3.00;;;;;;;;;;5013434;28;20201;-60
2022/01/03 03:20:17;;;;;;;4.43;2.90;;;;;;;;;;5013299;28;20257;-60
2022/01/03 03:22:43;;;;;;;6.97;2.92;;;;;;;;;;5013594;28;20236;-60
2022/01/03 03:25:14;;;;;;;6.18;2.67;;;;;;;;;;5013686;28;20174;-60
2022/01/03 03:27:44;;;;;;;4.82;2.72;;;;;;;;;;5013263;28;20660;-60
2022/01/03 03:30:24;;;;;;;5.20;2.65;;;;;;;;;;5013639;28;20263;-60
2022/01/03 03:32:51;;;;;;;5.00;3.30;;;;;;;;;;5015782;28;20172;-60
2022/01/03 03:35:17;;;;;;;5.22;3.30;;;;;;;;;;5017011;28;20212;-60
2022/01/03 03:37:43;;;;;;;5.28;3.28;;;;;;;;;;5017222;28;20217;-60
2022/01/03 03:40:10;;;;;;;5.68;3.25;;;;;;;;;;5017313;28;20182;-60
2022/01/03 03:42:36;;;;;;;5.93;3.38;;;;;;;;;;5017338;28;20181;-60
2022/01/03 03:45:03;;;;;;;6.18;3.33;;;;;;;;;;5017206;28;20653;-60
2022/01/03 03:47:28;;;;;;;5.65;3.60;;;;;;;;;;5018542;28;20170;-59
2022/01/03 03:49:54;;;;;;;6.55;3.42;;;;;;;;;;5022528;28;20269;-60
2022/01/03 03:52:20;;;;;;;5.10;3.78;;;;;;;;;;5034810;28;20252;-60
2022/01/03 03:54:46;;;;;;;6.38;3.60;;;;;;;;;;5035405;28;20190;-60
2022/01/03 03:57:12;;;;;;;5.70;3.60;;;;;;;;;;5033494;28;20166;-60
2022/01/03 03:59:38;;;;;;;4.45;3.25;;;;;;;;;;5031554;28;20174;-60
2022/01/03 04:02:05;;;;;;;5.65;3.42;;;;;;;;;;5031681;28;20162;-60
2022/01/03 04:04:32;;;;;;;6.70;3.55;;;;;;;;;;5031208;28;20204;-61
2022/01/03 04:06:58;;;;;;;7.10;3.30;;;;;;;;;;5032834;28;20185;-60
2022/01/03 04:09:24;;;;;;;5.20;3.30;;;;;;;;;;5038639;28;20216;-60
2022/01/03 04:11:50;;;;;;;6.72;3.55;;;;;;;;;;5038228;28;20245;-60
2022/01/03 04:14:16;;;;;;;5.47;2.88;;;;;;;;;;5038198;28;20189;-60
2022/01/03 04:16:42;;;;;;;5.75;2.80;;;;;;;;;;5030011;28;20178;-60
2022/01/03 04:19:08;;;;;;;5.65;3.15;;;;;;;;;;5028903;28;20170;-60
2022/01/03 04:21:36;;;;;;;5.70;2.88;;;;;;;;;;5018399;28;20618;-60
2022/01/03 04:24:02;;;;;;;4.15;2.72;;;;;;;;;;5016634;28;20178;-60
2022/01/03 04:26:28;;;;;;;4.05;2.58;;;;;;;;;;5016053;28;20181;-61
2022/01/03 04:28:54;;;;;;;4.55;2.55;;;;;;;;;;5016026;28;20193;-60
2022/01/03 04:31:20;;;;;;;5.70;2.78;;;;;;;;;;5016068;28;20252;-59
2022/01/03 04:33:46;;;;;;;5.72;3.10;;;;;;;;;;5015917;28;20241;-59
2022/01/03 04:36:12;;;;;;;3.90;2.75;;;;;;;;;;5016193;28;20163;-59
2022/01/03 04:38:38;;;;;;;5.45;2.40;;;;;;;;;;5015739;28;20162;-58
2022/01/03 04:41:04;;;;;;;3.42;2.40;;;;;;;;;;5015864;28;20170;-59
2022/01/03 04:43:30;;;;;;;4.07;2.30;;;;;;;;;;5015477;28;20512;-58
2022/01/03 04:45:56;;;;;;;3.00;1.60;;;;;;;;;;5015842;28;20172;-59
2022/01/03 04:48:23;;;;;;;3.67;1.50;;;;;;;;;;5015586;28;20170;-60
2022/01/03 04:50:49;;;;;;;3.28;1.67;;;;;;;;;;5015720;28;20272;-59
2022/01/03 04:53:16;;;;;;;2.50;1.33;;;;;;;;;;5015437;28;20201;-59
2022/01/03 04:55:41;;;;;;;3.65;1.40;;;;;;;;;;5015838;28;20273;-59
2022/01/03 04:58:10;;;;;;;3.47;1.60;;;;;;;;;;5015906;28;20194;-59
2022/01/03 05:00:36;;;;;;;2.42;1.30;;;;;;;;;;5015929;28;20174;-61
2022/01/03 05:03:02;;;;;;;4.40;1.20;;;;;;;;;;5015516;28;20178;-60
2022/01/03 05:05:28;;;;;;;3.08;1.45;;;;;;;;;;5015373;28;20193;-60
2022/01/03 05:07:54;;;;;;;3.58;1.38;;;;;;;;;;5015217;28;20174;-60
2022/01/03 05:10:20;;;;;;;1.40;1.05;;;;;;;;;;5015085;28;20271;-60
2022/01/03 05:12:46;;;;;;;3.92;1.10;;;;;;;;;;5015232;28;20268;-60
2022/01/03 05:15:12;;;;;;;5.97;1.30;;;;;;;;;;5015071;28;20810;-60
2022/01/03 05:17:38;;;;;;;2.92;1.10;;;;;;;;;;5015238;28;20169;-60
2022/01/03 05:20:04;;;;;;;2.58;1.05;;;;;;;;;;5015625;28;20166;-59
2022/01/03 05:22:30;;;;;;;2.20;1.05;;;;;;;;;;5015118;28;20509;-59
2022/01/03 05:24:56;;;;;;;3.05;1.10;;;;;;;;;;4997588;28;20273;-59
2022/01/03 05:27:22;;;;;;;3.30;1.30;;;;;;;;;;5014925;28;20162;-59
2022/01/03 05:29:47;;;;;;;3.90;1.40;;;;;;;;;;5014784;28;20637;-59
2022/01/03 05:32:13;;;;;;;3.22;1.65;;;;;;;;;;5014903;28;20170;-59
2022/01/03 05:34:39;;;;;;;2.40;1.70;;;;;;;;;;5014738;28;20162;-59
2022/01/03 05:37:05;;;;;;;4.78;1.52;;;;;;;;;;5015015;28;20636;-60
2022/01/03 05:39:31;;;;;;;4.03;1.60;;;;;;;;;;5014714;28;20181;-60
2022/01/03 05:41:57;;;;;;;6.75;2.10;;;;;;;;;;5014754;28;20170;-60
2022/01/03 05:44:23;;;;;;;7.03;1.65;;;;;;;;;;5014928;28;20192;-60
2022/01/03 05:46:49;;;;;;;4.50;1.70;;;;;;;;;;5015001;28;20162;-59
2022/01/03 05:49:16;;;;;;;4.93;1.90;;;;;;;;;;5014293;28;20501;-58
2022/01/03 05:51:42;;;;;;;5.15;2.03;;;;;;;;;;5014588;28;20260;-59
2022/01/03 05:54:08;;;;;;;3.72;2.22;;;;;;;;;;5013682;28;20264;-59
2022/01/03 05:56:34;;;;;;;7.82;2.47;;;;;;;;;;5014285;28;20243;-59
2022/01/03 05:59:00;;;;;;;4.78;2.58;;;;;;;;;;5014663;28;20174;-59
2022/01/03 06:01:26;;;;;;;4.88;2.40;;;;;;;;;;5014316;28;20165;-58
2022/01/03 06:04:01;;;;;;;4.85;2.30;;;;;;;;;;5014438;28;20416;-59
2022/01/03 06:06:53;;;;;;;8.15;2.70;;;;;;;;;;5014548;28;20158;-59
2022/01/03 06:09:17;;;;;;;9.93;2.92;;;;;;;;;;5014369;28;20178;-60
2022/01/03 06:11:43;;;;;;;7.68;2.58;;;;;;;;;;5014324;28;20169;-59
2022/01/03 06:14:09;;;;;;;9.15;2.67;;;;;;;;;;5014176;28;20174;-59
2022/01/03 06:16:35;;;;;;;7.97;2.65;;;;;;;;;;5014432;28;20177;-60
2022/01/03 06:19:01;;;;;;;9.73;2.75;;;;;;;;;;5014368;28;20159;-59
2022/01/03 06:21:27;;;;;;;10.73;2.75;;;;;;;;;;5014099;28;20263;-60
2022/01/03 06:23:53;;;;;;;6.68;2.78;;;;;;;;;;5014357;28;20167;-60
2022/01/03 06:26:19;;;;;;;7.90;2.25;;;;;;;;;;5014137;28;20257;-60
2022/01/03 06:28:45;;;;;;;6.32;1.88;;;;;;;;;;5014233;28;20265;-60
2022/01/03 06:31:10;;;;;;;12.00;2.53;;;;;;;;;;5013936;28;20645;-58
2022/01/03 06:33:36;;;;;;;6.80;2.28;;;;;;;;;;5013997;28;20166;-60
2022/01/03 06:36:02;;;;;;;5.90;2.08;;;;;;;;;;5014176;28;20174;-60
2022/01/03 06:38:28;;;;;;;10.15;2.20;;;;;;;;;;5014094;28;20605;-60
2022/01/03 06:40:55;;;;;;;14.52;2.80;;;;;;;;;;5013913;28;20265;-59
2022/01/03 06:43:21;;;;;;;8.48;2.03;;;;;;;;;;5013973;28;20261;-59
2022/01/03 06:45:47;;;;;;;9.35;1.83;;;;;;;;;;5013759;28;20269;-60
2022/01/03 06:48:12;;;;;;;9.55;1.88;;;;;;;;;;5014139;28;20174;-60
2022/01/03 06:50:38;;;;;;;9.45;2.08;;;;;;;;;;5013733;28;20629;-59
2022/01/03 06:53:04;;;;;;;8.52;1.90;;;;;;;;;;5013943;28;20186;-60
2022/01/03 06:55:30;;;;;;;11.10;2.20;;;;;;;;;;5014035;28;20176;-60
2022/01/03 06:57:56;;;;;;;11.05;2.05;;;;;;;;;;5014440;28;20170;-60
2022/01/03 07:00:22;;;;;;;7.65;1.95;;;;;;;;;;5013955;28;20672;-60
2022/01/03 07:02:48;;;;;;;11.85;2.00;;;;;;;;;;5014222;28;20265;-60
2022/01/03 07:05:15;;;;;;;9.02;2.17;;;;;;;;;;5025631;28;20189;-60
2022/01/03 07:07:41;;;;;;;9.50;1.75;;;;;;;;;;5019580;28;20676;-61
2022/01/03 07:10:09;;;;;;;10.65;2.45;;;;;;;;;;5017700;28;20289;-60
2022/01/03 07:12:35;;;;;;;7.38;1.85;;;;;;;;;;5017788;28;20236;-60
2022/01/03 07:20:12;;;;;;;5.13;2.00;;;;;;;;;;5017850;28;20248;-60
2022/01/03 07:22:40;;;;;;;10.77;1.95;;;;;;;;;;5017472;28;20610;-59
2022/01/03 07:25:07;;;;;;;6.55;2.08;;;;;;;;;;5017821;28;20260;-59
2022/01/03 07:27:33;;;;;;;8.25;1.75;;;;;;;;;;5017773;28;20178;-60
2022/01/03 07:29:59;;;;;;;9.63;2.25;;;;;;;;;;5017509;28;20292;-60
2022/01/03 07:32:25;;;;;;;6.72;1.83;;;;;;;;;;5017398;28;20245;-60
2022/01/03 07:34:51;;;;;;;7.53;2.03;;;;;;;;;;5017233;28;20479;-61
2022/01/03 07:37:18;;;;;;;7.70;1.98;;;;;;;;;;5017526;28;20173;-60
2022/01/03 07:39:44;;;;;;;6.18;1.92;;;;;;;;;;5017357;28;20182;-60
2022/01/03 07:42:09;;;;;;;5.38;1.90;;;;;;;;;;5017132;28;20213;-60
2022/01/03 07:44:36;;;;;;;3.72;1.52;;;;;;;;;;5017466;28;20174;-61
2022/01/03 07:47:02;;;;;;;6.55;1.80;;;;;;;;;;5017326;28;20174;-61
2022/01/03 07:49:28;;;;;;;6.90;1.83;;;;;;;;;;5016874;28;20277;-61
2022/01/03 07:51:54;;;;;;;8.35;1.95;;;;;;;;;;5016879;28;20561;-61
2022/01/03 07:54:20;;;;;;;11.02;2.60;;;;;;;;;;5016909;28;20257;-60
2022/01/03 07:56:46;;;;;;;6.38;1.63;;;;;;;;;;5016885;28;20623;-59
2022/01/03 07:59:12;;;;;;;7.10;2.17;;;;;;;;;;5016900;28;20590;-60
2022/01/03 08:01:40;;;;;;;6.30;2.30;;;;;;;;;;5016972;28;20202;-61
2022/01/03 08:04:06;;;;;;;8.23;2.15;;;;;;;;;;5017058;28;20167;-61
2022/01/03 08:06:32;;;;;;;9.90;2.45;;;;;;;;;;5016815;28;20178;-61
2022/01/03 08:08:58;;;;;;;8.77;2.00;;;;;;;;;;5016671;28;20173;-61
2022/01/03 08:11:26;;;;;;;5.43;2.00;;;;;;;;;;5016401;28;20190;-61
2022/01/03 08:13:52;;;;;;;9.07;2.80;;;;;;;;;;5016835;28;20253;-61
2022/01/03 08:16:18;;;;;;;7.30;2.58;;;;;;;;;;5016507;28;20297;-60
2022/01/03 08:18:44;;;;;;;9.07;2.65;;;;;;;;;;5015875;28;20194;-61
2022/01/03 08:21:10;;;;;;;5.80;2.47;;;;;;;;;;5016419;28;20174;-61
2022/01/03 08:23:36;;;;;;;10.52;2.63;;;;;;;;;;5016866;28;20197;-60
2022/01/03 08:26:02;;;;;;;7.32;2.17;;;;;;;;;;5016446;28;20606;-60
2022/01/03 08:28:28;;;;;;;10.80;2.60;;;;;;;;;;5016513;28;20189;-59
2022/01/03 08:30:54;;;;;;;8.13;2.63;;;;;;;;;;5016175;28;20207;-60
2022/01/03 08:33:20;;;;;;;14.60;2.70;;;;;;;;;;5016410;28;20638;-60
2022/01/03 08:35:46;;;;;;;8.20;2.28;;;;;;;;;;5016184;28;20216;-60
2022/01/03 08:38:12;;;;;;;8.23;2.72;;;;;;;;;;5016125;28;20375;-60
2022/01/03 08:40:39;;;;;;;9.98;2.33;;;;;;;;;;5016266;28;20166;-61
2022/01/03 08:43:05;;;;;;;11.50;2.50;;;;;;;;;;5016347;28;20228;-57
2022/01/03 08:45:31;;;;;;;9.30;2.40;;;;;;;;;;5016241;28;20174;-59
2022/01/03 08:47:58;;;;;;;8.77;2.67;;;;;;;;;;5016075;28;20448;-60
2022/01/03 08:50:25;;;;;;;9.25;2.45;;;;;;;;;;5016202;28;20190;-60
2022/01/03 08:52:51;;;;;;;12.10;2.83;;;;;;;;;;5015820;28;20171;-60
2022/01/03 08:55:18;;;;;;;11.70;2.72;;;;;;;;;;5015815;28;20217;-60
2022/01/03 08:57:46;;;;;;;13.70;2.85;;;;;;;;;;5015973;28;20167;-60
2022/01/03 09:00:12;;;;;;;8.98;2.75;;;;;;;;;;5016023;28;20176;-59
2022/01/03 09:02:38;;;;;;;11.48;2.17;;;;;;;;;;5015947;28;20197;-59
2022/01/03 09:05:04;;;;;;;9.20;2.33;;;;;;;;;;5016221;28;20170;-60
2022/01/03 09:07:30;;;;;;;10.55;2.60;;;;;;;;;;5015592;28;20173;-60
2022/01/03 09:09:56;;;;;;;8.90;2.22;;;;;;;;;;5015568;28;20525;-59
2022/01/03 09:12:22;;;;;;;7.10;1.75;;;;;;;;;;5015930;28;20205;-60
2022/01/03 09:14:48;;;;;;;8.77;2.70;;;;;;;;;;5015472;28;20167;-59
2022/01/03 09:17:14;;;;;;;10.60;2.35;;;;;;;;;;5015528;28;20170;-60
2022/01/03 09:19:40;;;;;;;10.45;2.13;;;;;;;;;;5015346;28;20228;-58
2022/01/03 09:22:23;;;;;;;8.25;1.88;;;;;;;;;;5015460;28;20598;-61
2022/01/03 09:30:04;;;;;;;11.43;2.17;;;;;;;;;;5014648;28;20248;-60
2022/01/03 09:32:30;;;;;;;11.75;2.47;;;;;;;;;;5015084;28;20162;-60
2022/01/03 09:34:57;;;;;;;11.93;2.58;;;;;;;;;;5015270;28;20167;-60
2022/01/03 09:37:23;;;;;;;13.43;3.03;;;;;;;;;;5015271;28;20491;-60
2022/01/03 09:39:49;;;;;;;11.20;2.40;;;;;;;;;;5015228;28;20178;-60
2022/01/03 09:42:18;;;;;;;15.65;2.78;;;;;;;;;;5015595;28;20174;-59
2022/01/03 09:44:44;;;;;;;11.82;3.00;;;;;;;;;;5015485;28;20600;-60
2022/01/03 09:47:11;;;;;;;13.13;2.72;;;;;;;;;;5015244;28;20240;-60
2022/01/03 09:49:38;;;;;;;13.02;2.60;;;;;;;;;;5014887;28;20253;-60
2022/01/03 09:52:06;;;;;;;16.63;2.92;;;;;;;;;;5015304;28;20170;-58
2022/01/03 09:54:32;;;;;;;13.23;3.60;;;;;;;;;;5015157;28;20681;-60
2022/01/03 09:57:00;;;;;;;15.77;2.50;;;;;;;;;;5014724;28;20562;-60
2022/01/03 09:59:26;;;;;;;9.77;2.42;;;;;;;;;;5014743;28;20505;-59
2022/01/03 10:01:53;;;;;;;8.35;2.42;;;;;;;;;;5014916;28;20170;-60
2022/01/03 10:04:19;;;;;;;11.70;3.53;;;;;;;;;;5015417;28;20162;-62
2022/01/03 10:06:45;;;;;;;15.20;2.97;;;;;;;;;;5014578;28;20177;-59
2022/01/03 10:09:11;;;;;;;12.35;2.65;;;;;;;;;;5015092;28;20227;-59
2022/01/03 10:11:37;;;;;;;11.52;2.55;;;;;;;;;;5014721;28;20484;-58
2022/01/03 10:14:03;;;;;;;13.40;2.40;;;;;;;;;;5014868;28;20638;-59
2022/01/03 10:16:29;;;;;;;11.32;3.00;;;;;;;;;;5014598;28;20245;-60
2022/01/03 10:18:56;;;;;;;8.73;2.35;;;;;;;;;;5014551;28;20254;-59
2022/01/03 10:21:40;;;;;;;15.50;2.75;;;;;;;;;;5014297;28;20174;-59
2022/01/03 10:24:07;;;;;;;11.90;2.78;;;;;;;;;;5014276;28;20621;-60
2022/01/03 10:26:34;;;;;;;13.35;3.28;;;;;;;;;;5014269;28;20216;-60
2022/01/03 10:29:33;;;;;;;11.70;2.65;;;;;;;;;;5014120;28;20610;-59
2022/01/03 10:32:00;;;;;;;13.25;3.08;;;;;;;;;;5003013;28;20182;-59
2022/01/03 10:34:27;;;;;;;9.98;1.92;;;;;;;;;;5014516;28;20174;-59
2022/01/03 10:36:54;;;;;;;17.25;2.47;;;;;;;;;;5014153;28;20585;-59
2022/01/03 10:39:20;;;;;;;8.80;2.28;;;;;;;;;;5014412;28;20261;-58
2022/01/03 10:41:47;;;;;;;9.50;1.92;;;;;;;;;;5013945;28;20245;-59
2022/01/03 10:44:30;;;;;;;10.02;2.13;;;;;;;;;;5014250;28;20269;-60
2022/01/03 10:46:56;;;;;;;11.50;2.28;;;;;;;;;;4996905;28;20582;-60
2022/01/03 10:49:24;;;;;;;9.90;2.22;;;;;;;;;;5013920;28;20170;-59
2022/01/03 10:51:52;;;;;;;10.93;2.22;;;;;;;;;;5014175;28;20209;-59
2022/01/03 10:54:19;;;;;;;11.05;2.30;;;;;;;;;;5013719;28;20178;-59
2022/01/03 10:56:50;;;;;;;8.93;2.10;;;;;;;;;;5013908;28;20196;-59
2022/01/03 10:59:18;;;;;;;6.82;2.05;;;;;;;;;;5013885;28;20158;-61
2022/01/03 11:01:46;;;;;;;10.13;2.00;;;;;;;;;;5014426;28;20188;-58
2022/01/03 11:04:24;;;;;;;6.18;1.67;;;;;;;;;;5013974;28;20252;-59
2022/01/03 11:10:43;;;;;;;6.35;2.05;;;;;;;;;;5014201;28;20162;-59
2022/01/03 11:13:03;;;;;;;7.85;1.77;;;;;;;;;;5024931;28;20178;-60
2022/01/03 11:15:29;;;;;;;9.52;2.00;;;;;;;;;;5025250;28;20162;-60
2022/01/03 11:18:07;;;;;;;10.95;1.95;;;;;;;;;;5025276;28;20253;-59
2022/01/03 11:20:34;;;;;;;10.82;2.20;;;;;;;;;;5027378;28;20238;-60
2022/01/03 11:23:00;;;;;;;10.02;2.72;;;;;;;;;;5030952;28;20190;-60
2022/01/03 11:25:30;;;;;;;7.63;2.13;;;;;;;;;;5030952;28;20201;-60
2022/01/03 11:27:55;;;;;;;9.65;2.17;;;;;;;;;;5028877;28;20248;-60
2022/01/03 11:30:22;;;;;;;9.85;2.17;;;;;;;;;;5017498;28;20634;-60
2022/01/03 11:32:49;;;;;;;7.43;2.97;;;;;;;;;;5013375;28;20170;-60
2022/01/03 11:35:15;;;;;;;8.70;2.35;;;;;;;;;;5013769;28;20249;-60
2022/01/03 11:37:44;;;;;;;9.05;2.72;;;;;;;;;;5013577;28;20174;-60
2022/01/03 11:40:11;;;;;;;10.00;2.40;;;;;;;;;;5013574;28;20170;-59
2022/01/03 11:42:38;;;;;;;10.00;2.70;;;;;;;;;;5013544;28;20170;-59
2022/01/03 11:45:04;;;;;;;12.25;2.70;;;;;;;;;;5013593;28;20181;-60
2022/01/03 11:47:31;;;;;;;12.38;2.22;;;;;;;;;;5013298;28;20214;-59
2022/01/03 11:49:57;;;;;;;10.73;2.50;;;;;;;;;;5013525;28;20233;-59
2022/01/03 11:52:23;;;;;;;7.45;2.10;;;;;;;;;;5013550;28;20178;-60
2022/01/03 11:54:52;;;;;;;9.90;1.90;;;;;;;;;;5016988;28;20169;-60
2022/01/03 11:57:38;;;;;;;11.13;2.17;;;;;;;;;;5017062;28;20671;-60
2022/01/03 12:05:48;;;;;;;9.13;1.88;;;;;;;;;;5017153;28;20190;-60
2022/01/03 12:08:32;;;;;;;9.35;1.98;;;;;;;;;;5016728;28;20167;-60
2022/01/03 12:11:00;;;;;;;8.30;2.17;;;;;;;;;;5016682;28;20557;-60
2022/01/03 12:13:44;;;;;;;10.43;1.95;;;;;;;;;;5016776;28;20189;-60
2022/01/03 12:16:12;;;;;;;14.35;2.72;;;;;;;;;;5016696;28;20197;-59
2022/01/03 12:18:38;;;;;;;17.50;2.95;;;;;;;;;;5016759;28;20174;-61
2022/01/03 12:21:04;;;;;;;6.65;2.20;;;;;;;;;;5016777;28;20473;-61
2022/01/03 12:23:38;;;;;;;9.35;2.38;;;;;;;;;;5016331;28;20231;-61
2022/01/03 12:26:08;;;;;;;12.27;2.53;;;;;;;;;;5016543;28;20158;-61
2022/01/03 12:28:53;;;;;;;9.07;2.38;;;;;;;;;;5016553;28;20183;-61
2022/01/03 12:31:19;;;;;;;9.02;2.50;;;;;;;;;;5016233;28;20200;-60
2022/01/03 12:34:05;;;;;;;13.18;2.53;;;;;;;;;;5016197;28;20162;-61
2022/01/03 12:36:30;;;;;;;6.95;1.90;;;;;;;;;;5016119;28;20170;-61
2022/01/03 12:39:04;;;;;;;6.07;1.67;;;;;;;;;;5016171;28;20166;-60
2022/01/03 12:41:44;;;;;;;10.05;2.20;;;;;;;;;;5016017;28;20198;-60
2022/01/03 12:44:11;;;;;;;15.15;2.63;;;;;;;;;;5016248;28;20177;-61
2022/01/03 12:46:37;;;;;;;17.30;2.60;;;;;;;;;;5015992;28;20169;-61
2022/01/03 12:49:24;;;;;;;11.50;2.20;;;;;;;;;;5016060;28;20170;-61
2022/01/03 12:51:50;;;;;;;12.32;2.42;;;;;;;;;;5016201;28;20203;-60
2022/01/03 12:54:36;;;;;;;15.10;2.83;;;;;;;;;;5015682;28;20523;-61
2022/01/03 12:57:12;;;;;;;11.85;2.08;;;;;;;;;;5015733;28;20174;-60
2022/01/03 12:59:38;;;;;;;14.05;2.35;;;;;;;;;;5016097;28;20169;-60
2022/01/03 13:02:23;;;;;;;15.32;2.45;;;;;;;;;;5015746;28;20162;-60
2022/01/03 13:04:49;;;;;;;14.48;2.90;;;;;;;;;;5015484;28;20618;-59
2022/01/03 13:07:21;;;;;;;9.50;2.58;;;;;;;;;;5015757;28;20178;-59
2022/01/03 13:09:47;;;;;;;11.80;2.72;;;;;;;;;;5015691;28;20519;-60
2022/01/03 13:12:13;;;;;;;8.70;2.15;;;;;;;;;;5015602;28;20181;-60
2022/01/03 13:14:39;;;;;;;11.00;2.30;;;;;;;;;;5015344;28;20170;-59
2022/01/03 13:17:05;;;;;;;14.98;2.38;;;;;;;;;;5015276;28;20174;-60
2022/01/03 13:19:32;;;;;;;12.52;2.60;;;;;;;;;;5015422;28;20166;-59
2022/01/03 13:22:00;;;;;;;10.05;2.40;;;;;;;;;;5015603;28;20162;-61
2022/01/03 13:24:26;;;;;;;10.45;2.85;;;;;;;;;;5015542;28;20170;-59
2022/01/03 13:27:08;;;;;;;12.07;3.10;;;;;;;;;;5015753;28;20162;-59
2022/01/03 13:29:42;;;;;;;9.85;2.63;;;;;;;;;;5016117;28;20177;-59
2022/01/03 13:32:08;;;;;;;16.30;2.75;;;;;;;;;;5016529;28;20502;-60
2022/01/03 13:34:35;;;;;;;14.13;2.55;;;;;;;;;;5015304;28;20169;-60
2022/01/03 13:37:03;;;;;;;10.43;2.13;;;;;;;;;;5015316;28;20168;-59
2022/01/03 13:39:30;;;;;;;9.40;2.30;;;;;;;;;;5015760;28;20163;-59
2022/01/03 13:42:01;;;;;;;11.30;2.50;;;;;;;;;;5015995;28;20170;-60
2022/01/03 13:44:58;;;;;;;18.60;2.78;;;;;;;;;;5016565;28;20155;-60
2022/01/03 13:50:22;;;;;;;10.95;2.15;;;;;;;;;;5028577;28;20204;-60
2022/01/03 13:52:48;;;;;;;13.48;2.78;;;;;;;;;;5031442;28;20188;-61
2022/01/03 13:55:24;;;;;;;13.57;2.70;;;;;;;;;;5031269;28;20241;-60
2022/01/03 13:58:00;;;;;;;12.65;2.72;;;;;;;;;;5030124;28;20166;-60
2022/01/03 14:00:26;;;;;;;10.32;2.83;;;;;;;;;;5029142;28;20166;-60
2022/01/03 14:02:52;;;;;;;12.35;2.15;;;;;;;;;;5028906;28;20181;-60
2022/01/03 14:05:18;;;;;;;13.68;2.67;;;;;;;;;;5030518;28;20598;-60
2022/01/03 14:07:51;;;;;;;10.45;2.35;;;;;;;;;;5030858;28;20166;-60
2022/01/03 14:10:17;;;;;;;8.43;2.03;;;;;;;;;;5031728;28;20193;-60
2022/01/03 14:12:49;;;;;;;7.82;2.13;;;;;;;;;;5027970;28;20177;-59
2022/01/03 14:15:15;;;;;;;16.98;2.38;;;;;;;;;;5025609;28;20184;-59
2022/01/03 14:17:48;;;;;;;11.80;2.70;;;;;;;;;;5018930;28;20203;-60
2022/01/03 14:20:14;;;;;;;8.40;2.53;;;;;;;;;;5015639;28;20158;-60
2022/01/03 14:22:40;;;;;;;12.52;2.83;;;;;;;;;;5014531;28;20562;-60
2022/01/03 14:25:11;;;;;;;10.40;1.95;;;;;;;;;;5014542;28;20166;-60
2022/01/03 14:27:38;;;;;;;9.35;2.42;;;;;;;;;;5014511;28;20177;-60
2022/01/03 14:30:15;;;;;;;10.95;2.35;;;;;;;;;;5014256;28;20221;-60
2022/01/03 14:32:41;;;;;;;10.45;1.98;;;;;;;;;;5014304;28;20525;-60
2022/01/03 14:35:07;;;;;;;10.25;2.30;;;;;;;;;;5014524;28;20549;-60
2022/01/03 14:37:35;;;;;;;11.25;2.30;;;;;;;;;;5014399;28;20220;-60
2022/01/03 14:40:01;;;;;;;13.82;2.92;;;;;;;;;;5014740;28;20173;-60
2022/01/03 14:42:29;;;;;;;13.20;2.47;;;;;;;;;;5014420;28;20185;-61
2022/01/03 14:44:55;;;;;;;12.63;2.83;;;;;;;;;;5014406;28;20239;-60
2022/01/03 14:47:25;;;;;;;14.45;3.13;;;;;;;;;;5015058;28;20550;-60
2022/01/03 14:49:57;;;;;;;11.93;3.00;;;;;;;;;;5014106;28;20216;-61
2022/01/03 14:52:30;;;;;;;12.90;2.90;;;;;;;;;;5014181;28;20606;-61
2022/01/03 14:54:56;;;;;;;11.90;2.80;;;;;;;;;;5014029;28;20448;-59
2022/01/03 14:57:27;;;;;;;12.48;2.75;;;;;;;;;;5014657;28;20166;-60
2022/01/03 14:59:53;;;;;;;18.33;2.72;;;;;;;;;;5014576;28;20178;-60
2022/01/03 15:02:18;;;;;;;10.55;2.35;;;;;;;;;;5014247;28;20308;-60
2022/01/03 15:04:44;;;;;;;13.55;2.80;;;;;;;;;;5014326;28;20521;-60
2022/01/03 15:07:15;;;;;;;10.18;2.60;;;;;;;;;;5013873;28;20170;-60